TUI24N EDDF-LSZH
Flight info
| Callsign | TUI24N |
|---|---|
| Flight time | N/A |
| Altitude | 31000 |
| Route | KELIP |
| Aircraft | B738/M-SDE2E3FGHIRWXY/LB1 |
Departure
| Time | N/A |
|---|---|
| Airport | Frankfurt Main Airport (EDDF) |
Arrival
| Time | 2026-05-05 21:49 |
|---|---|
| Airport | Zürich Airport (LSZH) |
| Time | Latitude | Longitude | Altitude | Speed | Heading |
|---|---|---|---|---|---|
| 2026-05-05 21:26 | 46.09671 | 9.07000 | 27297 ft | 387 kts | 83° |
| 2026-05-05 21:27 | 46.10215 | 9.10862 | 27330 ft | 402 kts | 83° |
| 2026-05-05 21:27 | 46.11101 | 9.14769 | 27317 ft | 423 kts | 63° |
| 2026-05-05 21:27 | 46.12981 | 9.18109 | 27322 ft | 439 kts | 39° |
| 2026-05-05 21:27 | 46.15601 | 9.20287 | 27372 ft | 444 kts | 15° |
| 2026-05-05 21:28 | 46.18643 | 9.21091 | 27337 ft | 448 kts | 357° |
| 2026-05-05 21:28 | 46.21766 | 9.20994 | 27361 ft | 451 kts | 348° |
| 2026-05-05 21:28 | 46.24882 | 9.20223 | 27336 ft | 459 kts | 342° |
| 2026-05-05 21:28 | 46.28021 | 9.19166 | 27340 ft | 467 kts | 341° |
| 2026-05-05 21:29 | 46.31191 | 9.18026 | 27323 ft | 472 kts | 341° |
| 2026-05-05 21:29 | 46.34392 | 9.16853 | 27322 ft | 475 kts | 341° |
| 2026-05-05 21:29 | 46.37589 | 9.15673 | 27315 ft | 474 kts | 340° |
| 2026-05-05 21:29 | 46.40788 | 9.14486 | 27306 ft | 475 kts | 341° |
| 2026-05-05 21:30 | 46.43987 | 9.13292 | 27316 ft | 475 kts | 340° |
| 2026-05-05 21:30 | 46.47190 | 9.12095 | 27310 ft | 474 kts | 340° |
| 2026-05-05 21:30 | 46.50335 | 9.10918 | 27289 ft | 473 kts | 340° |
| 2026-05-05 21:30 | 46.53519 | 9.09726 | 27298 ft | 472 kts | 340° |
| 2026-05-05 21:31 | 46.56678 | 9.08521 | 27282 ft | 465 kts | 338° |
| 2026-05-05 21:31 | 46.59602 | 9.06759 | 27274 ft | 449 kts | 325° |
| 2026-05-05 21:31 | 46.62281 | 9.04501 | 27296 ft | 442 kts | 323° |
| 2026-05-05 21:31 | 46.64899 | 9.02165 | 27284 ft | 442 kts | 322° |
| 2026-05-05 21:32 | 46.67518 | 8.99830 | 27270 ft | 439 kts | 323° |
| 2026-05-05 21:32 | 46.70079 | 8.97598 | 26902 ft | 432 kts | 323° |
| 2026-05-05 21:32 | 46.72674 | 8.95382 | 26311 ft | 432 kts | 324° |
| 2026-05-05 21:32 | 46.75281 | 8.93187 | 25647 ft | 433 kts | 324° |
| 2026-05-05 21:33 | 46.77893 | 8.91004 | 25067 ft | 433 kts | 325° |
| 2026-05-05 21:33 | 46.80502 | 8.88831 | 24585 ft | 429 kts | 325° |
| 2026-05-05 21:33 | 46.83085 | 8.86679 | 24131 ft | 426 kts | 325° |
| 2026-05-05 21:33 | 46.85642 | 8.84544 | 23675 ft | 421 kts | 325° |
| 2026-05-05 21:34 | 46.88177 | 8.82421 | 23172 ft | 418 kts | 325° |
| 2026-05-05 21:34 | 46.90681 | 8.80320 | 22580 ft | 415 kts | 325° |
| 2026-05-05 21:34 | 46.93180 | 8.78222 | 22051 ft | 412 kts | 325° |
| 2026-05-05 21:34 | 46.95683 | 8.76328 | 21539 ft | 413 kts | 336° |
| 2026-05-05 21:35 | 46.98522 | 8.75536 | 21038 ft | 417 kts | 352° |
| 2026-05-05 21:35 | 47.01395 | 8.75198 | 20598 ft | 412 kts | 352° |
| 2026-05-05 21:35 | 47.04244 | 8.74806 | 20084 ft | 410 kts | 351° |
| 2026-05-05 21:35 | 47.07060 | 8.74368 | 19650 ft | 405 kts | 350° |
| 2026-05-05 21:36 | 47.09823 | 8.73751 | 19223 ft | 395 kts | 347° |
| 2026-05-05 21:36 | 47.12492 | 8.73024 | 18859 ft | 382 kts | 346° |
| 2026-05-05 21:36 | 47.15067 | 8.72298 | 18704 ft | 378 kts | 346° |
| 2026-05-05 21:36 | 47.17708 | 8.71558 | 18545 ft | 393 kts | 347° |
| 2026-05-05 21:37 | 47.20383 | 8.70833 | 18375 ft | 398 kts | 347° |
| 2026-05-05 21:37 | 47.23096 | 8.70116 | 18193 ft | 393 kts | 347° |
| 2026-05-05 21:37 | 47.25768 | 8.69414 | 17992 ft | 388 kts | 347° |
| 2026-05-05 21:37 | 47.28338 | 8.68377 | 17796 ft | 380 kts | 334° |
| 2026-05-05 21:38 | 47.30696 | 8.66698 | 17645 ft | 377 kts | 330° |
| 2026-05-05 21:38 | 47.33040 | 8.64981 | 17427 ft | 372 kts | 331° |
| 2026-05-05 21:38 | 47.35309 | 8.63244 | 16713 ft | 366 kts | 322° |
| 2026-05-05 21:38 | 47.37144 | 8.60722 | 15885 ft | 357 kts | 303° |
| 2026-05-05 21:39 | 47.38323 | 8.57677 | 15638 ft | 337 kts | 289° |
| 2026-05-05 21:39 | 47.39133 | 8.54430 | 15423 ft | 343 kts | 285° |
| 2026-05-05 21:39 | 47.39893 | 8.51040 | 15196 ft | 351 kts | 285° |
| 2026-05-05 21:39 | 47.40647 | 8.47619 | 14952 ft | 349 kts | 285° |
| 2026-05-05 21:40 | 47.41401 | 8.44228 | 14338 ft | 350 kts | 285° |
| 2026-05-05 21:40 | 47.42177 | 8.40770 | 13318 ft | 355 kts | 285° |
| 2026-05-05 21:40 | 47.42960 | 8.37314 | 12269 ft | 355 kts | 285° |
| 2026-05-05 21:40 | 47.43748 | 8.33864 | 11262 ft | 354 kts | 285° |
| 2026-05-05 21:41 | 47.44691 | 8.30504 | 10246 ft | 357 kts | 297° |
| 2026-05-05 21:41 | 47.46184 | 8.27626 | 9295 ft | 358 kts | 305° |
| 2026-05-05 21:41 | 47.47739 | 8.24778 | 8255 ft | 355 kts | 304° |
| 2026-05-05 21:41 | 47.49548 | 8.22304 | 7379 ft | 359 kts | 326° |
| 2026-05-05 21:42 | 47.51832 | 8.21010 | 7001 ft | 347 kts | 345° |
| 2026-05-05 21:42 | 47.54106 | 8.20254 | 6760 ft | 323 kts | 338° |
| 2026-05-05 21:42 | 47.56132 | 8.19055 | 6504 ft | 305 kts | 330° |
| 2026-05-05 21:42 | 47.57987 | 8.17703 | 6243 ft | 290 kts | 328° |
| 2026-05-05 21:43 | 47.59746 | 8.16413 | 6163 ft | 279 kts | 335° |
| 2026-05-05 21:43 | 47.61669 | 8.16083 | 6043 ft | 290 kts | 5° |
| 2026-05-05 21:43 | 47.63541 | 8.17190 | 5998 ft | 294 kts | 34° |
| 2026-05-05 21:43 | 47.65012 | 8.19238 | 5993 ft | 286 kts | 45° |
| 2026-05-05 21:44 | 47.66310 | 8.21408 | 5978 ft | 277 kts | 55° |
| 2026-05-05 21:44 | 47.67002 | 8.24015 | 5985 ft | 271 kts | 86° |
| 2026-05-05 21:44 | 47.66834 | 8.26745 | 5871 ft | 265 kts | 114° |
| 2026-05-05 21:44 | 47.65865 | 8.28998 | 5584 ft | 257 kts | 135° |
| 2026-05-05 21:45 | 47.64692 | 8.30974 | 5310 ft | 256 kts | 138° |
| 2026-05-05 21:45 | 47.63427 | 8.32818 | 5054 ft | 254 kts | 141° |
| 2026-05-05 21:45 | 47.62150 | 8.34567 | 4799 ft | 253 kts | 141° |
| 2026-05-05 21:45 | 47.60857 | 8.36320 | 4547 ft | 251 kts | 141° |
| 2026-05-05 21:46 | 47.59589 | 8.38048 | 4372 ft | 242 kts | 141° |
| 2026-05-05 21:46 | 47.58376 | 8.39705 | 4153 ft | 234 kts | 142° |
| 2026-05-05 21:46 | 47.57192 | 8.41321 | 3865 ft | 228 kts | 142° |
| 2026-05-05 21:46 | 47.56046 | 8.42887 | 3561 ft | 219 kts | 141° |
| 2026-05-05 21:47 | 47.54968 | 8.44407 | 3168 ft | 210 kts | 139° |
| 2026-05-05 21:47 | 47.53937 | 8.45849 | 2817 ft | 195 kts | 140° |
| 2026-05-05 21:47 | 47.52959 | 8.47089 | 2564 ft | 176 kts | 142° |
| 2026-05-05 21:47 | 47.52128 | 8.48238 | 2434 ft | 157 kts | 139° |
| 2026-05-05 21:48 | 47.51344 | 8.49304 | 2146 ft | 148 kts | 139° |
| 2026-05-05 21:48 | 47.50590 | 8.50343 | 2060 ft | 151 kts | 138° |
| 2026-05-05 21:48 | 47.49816 | 8.51403 | 1876 ft | 151 kts | 137° |
| 2026-05-05 21:48 | 47.49067 | 8.52451 | 1713 ft | 147 kts | 139° |
| 2026-05-05 21:49 | 47.48309 | 8.53473 | 1501 ft | 149 kts | 138° |
| 2026-05-05 21:49 | 47.47583 | 8.54465 | 1402 ft | 124 kts | 136° |
| 2026-05-05 21:49 | 47.47109 | 8.55113 | 1404 ft | 64 kts | 137° |
| 2026-05-05 21:49 | 47.46836 | 8.55482 | 1404 ft | 32 kts | 138° |
| 2026-05-05 21:50 | 47.46658 | 8.55651 | 1408 ft | 30 kts | 160° |
| 2026-05-05 21:50 | 47.46462 | 8.55724 | 1402 ft | 28 kts | 167° |
| 2026-05-05 21:50 | 47.46327 | 8.55833 | 1405 ft | 22 kts | 139° |
| 2026-05-05 21:50 | 47.46262 | 8.55898 | 1399 ft | 9 kts | 179° |
| 2026-05-05 21:51 | 47.46234 | 8.55825 | 1396 ft | 9 kts | 268° |
| 2026-05-05 21:51 | 47.46238 | 8.55735 | 1400 ft | 9 kts | 276° |
| 2026-05-05 21:51 | 47.46217 | 8.55696 | 1399 ft | 6 kts | 191° |
| 2026-05-05 21:51 | 47.46177 | 8.55686 | 1396 ft | 6 kts | 185° |
| 2026-05-05 21:52 | 47.46158 | 8.55684 | 1396 ft | 0 kts | 186° |